sensor_id;sensor_type;location;lat;lon;timestamp;pressure;altitude;pressure_sealevel;temperature;humidity
42433;BME280;28071;48.232;20.668;2023-04-29T00:02:39;99612.69;;;8.82;100.00
42433;BME280;28071;48.232;20.668;2023-04-29T00:07:40;99611.06;;;8.81;100.00
42433;BME280;28071;48.232;20.668;2023-04-29T00:12:41;99600.25;;;8.69;100.00
42433;BME280;28071;48.232;20.668;2023-04-29T00:17:41;99601.06;;;8.70;100.00
42433;BME280;28071;48.232;20.668;2023-04-29T00:22:42;99609.63;;;8.72;100.00
42433;BME280;28071;48.232;20.668;2023-04-29T00:27:42;99617.59;;;8.85;100.00
42433;BME280;28071;48.232;20.668;2023-04-29T00:32:43;99609.59;;;8.92;100.00
42433;BME280;28071;48.232;20.668;2023-04-29T00:37:43;99591.25;;;8.83;100.00
42433;BME280;28071;48.232;20.668;2023-04-29T00:42:44;99606.56;;;8.88;100.00
42433;BME280;28071;48.232;20.668;2023-04-29T00:47:44;99612.47;;;8.83;100.00
42433;BME280;28071;48.232;20.668;2023-04-29T00:52:45;99599.25;;;8.77;100.00
42433;BME280;28071;48.232;20.668;2023-04-29T00:57:47;99592.69;;;8.79;100.00
42433;BME280;28071;48.232;20.668;2023-04-29T01:02:48;99602.06;;;8.88;100.00
42433;BME280;28071;48.232;20.668;2023-04-29T01:13:34;99599.44;;;8.62;100.00
42433;BME280;28071;48.232;20.668;2023-04-29T01:18:53;99582.50;;;8.50;100.00
42433;BME280;28071;48.232;20.668;2023-04-29T01:23:54;99584.72;;;8.53;100.00
42433;BME280;28071;48.232;20.668;2023-04-29T01:29:21;99571.28;;;8.48;100.00
42433;BME280;28071;48.232;20.668;2023-04-29T01:44:54;99554.16;;;8.44;100.00
42433;BME280;28071;48.232;20.668;2023-04-29T01:49:55;99595.56;;;8.65;100.00
42433;BME280;28071;48.232;20.668;2023-04-29T01:54:55;99595.34;;;8.66;100.00
42433;BME280;28071;48.232;20.668;2023-04-29T01:59:56;99582.50;;;8.50;100.00
42433;BME280;28071;48.232;20.668;2023-04-29T02:04:56;99596.78;;;8.62;100.00
42433;BME280;28071;48.232;20.668;2023-04-29T02:09:57;99581.09;;;8.47;100.00
42433;BME280;28071;48.232;20.668;2023-04-29T02:14:57;99603.28;;;8.59;100.00
42433;BME280;28071;48.232;20.668;2023-04-29T02:19:59;99597.78;;;8.61;100.00
42433;BME280;28071;48.232;20.668;2023-04-29T02:24:59;99597.59;;;8.56;100.00
42433;BME280;28071;48.232;20.668;2023-04-29T02:30:00;99574.34;;;8.45;100.00
42433;BME280;28071;48.232;20.668;2023-04-29T02:35:00;99555.97;;;8.37;100.00
42433;BME280;28071;48.232;20.668;2023-04-29T02:40:01;99595.75;;;8.56;100.00
42433;BME280;28071;48.232;20.668;2023-04-29T02:45:02;99592.69;;;8.46;100.00
42433;BME280;28071;48.232;20.668;2023-04-29T02:50:03;99588.81;;;8.42;100.00
42433;BME280;28071;48.232;20.668;2023-04-29T02:55:05;99581.69;;;8.43;100.00
42433;BME280;28071;48.232;20.668;2023-04-29T03:00:06;99584.34;;;8.49;100.00
42433;BME280;28071;48.232;20.668;2023-04-29T03:05:07;99583.91;;;8.46;100.00
42433;BME280;28071;48.232;20.668;2023-04-29T03:10:08;99572.47;;;8.39;100.00
42433;BME280;28071;48.232;20.668;2023-04-29T03:15:09;99577.78;;;8.32;100.00
42433;BME280;28071;48.232;20.668;2023-04-29T03:20:10;99574.50;;;8.30;100.00
42433;BME280;28071;48.232;20.668;2023-04-29T03:25:10;99575.28;;;8.04;100.00
42433;BME280;28071;48.232;20.668;2023-04-29T03:30:11;99577.72;;;8.05;100.00
42433;BME280;28071;48.232;20.668;2023-04-29T03:35:12;99573.84;;;8.01;100.00
42433;BME280;28071;48.232;20.668;2023-04-29T03:40:13;99567.72;;;8.01;100.00
42433;BME280;28071;48.232;20.668;2023-04-29T03:45:13;99547.91;;;7.84;100.00
42433;BME280;28071;48.232;20.668;2023-04-29T03:50:14;99569.09;;;7.84;100.00
42433;BME280;28071;48.232;20.668;2023-04-29T03:55:14;99591.56;;;7.94;100.00
42433;BME280;28071;48.232;20.668;2023-04-29T04:00:15;99591.34;;;7.96;100.00
42433;BME280;28071;48.232;20.668;2023-04-29T04:05:16;99598.06;;;7.98;100.00
42433;BME280;28071;48.232;20.668;2023-04-29T04:10:18;99595.66;;;8.10;100.00
42433;BME280;28071;48.232;20.668;2023-04-29T04:15:19;99592.84;;;8.18;100.00
42433;BME280;28071;48.232;20.668;2023-04-29T04:20:20;99584.47;;;8.21;100.00
42433;BME280;28071;48.232;20.668;2023-04-29T04:25:20;99578.16;;;8.22;100.00
42433;BME280;28071;48.232;20.668;2023-04-29T04:30:21;99587.56;;;8.31;100.00
42433;BME280;28071;48.232;20.668;2023-04-29T04:35:21;99585.06;;;8.23;100.00
42433;BME280;28071;48.232;20.668;2023-04-29T04:40:22;99570.84;;;8.24;100.00
42433;BME280;28071;48.232;20.668;2023-04-29T04:45:22;99582.28;;;8.38;100.00
42433;BME280;28071;48.232;20.668;2023-04-29T04:50:22;99589.22;;;8.39;100.00
42433;BME280;28071;48.232;20.668;2023-04-29T04:55:23;99581.47;;;8.38;100.00
42433;BME280;28071;48.232;20.668;2023-04-29T05:00:23;99595.53;;;8.45;100.00
42433;BME280;28071;48.232;20.668;2023-04-29T05:05:24;99594.72;;;8.51;100.00
42433;BME280;28071;48.232;20.668;2023-04-29T05:10:24;99586.19;;;8.55;100.00
42433;BME280;28071;48.232;20.668;2023-04-29T05:15:26;99574.94;;;8.60;100.00
42433;BME280;28071;48.232;20.668;2023-04-29T05:20:26;99575.56;;;8.69;100.00
42433;BME280;28071;48.232;20.668;2023-04-29T05:25:27;99578.63;;;8.85;100.00
42433;BME280;28071;48.232;20.668;2023-04-29T05:30:27;99589.81;;;9.01;100.00
42433;BME280;28071;48.232;20.668;2023-04-29T05:35:28;99575.31;;;9.03;100.00
42433;BME280;28071;48.232;20.668;2023-04-29T05:40:28;99582.81;;;9.26;100.00
42433;BME280;28071;48.232;20.668;2023-04-29T05:45:29;99581.34;;;9.43;100.00
42433;BME280;28071;48.232;20.668;2023-04-29T05:50:29;99544.19;;;9.37;100.00
42433;BME280;28071;48.232;20.668;2023-04-29T05:55:30;99587.09;;;9.85;100.00
42433;BME280;28071;48.232;20.668;2023-04-29T06:00:31;99588.81;;;10.05;100.00
42433;BME280;28071;48.232;20.668;2023-04-29T06:05:31;99581.25;;;10.08;100.00
42433;BME280;28071;48.232;20.668;2023-04-29T06:10:33;99594.50;;;10.15;100.00
42433;BME280;28071;48.232;20.668;2023-04-29T06:15:33;99588.34;;;10.21;100.00
42433;BME280;28071;48.232;20.668;2023-04-29T06:20:34;99585.84;;;10.33;100.00
42433;BME280;28071;48.232;20.668;2023-04-29T06:25:34;99550.50;;;10.19;100.00
42433;BME280;28071;48.232;20.668;2023-04-29T06:30:35;99577.13;;;10.50;100.00
42433;BME280;28071;48.232;20.668;2023-04-29T06:35:38;99570.38;;;10.48;100.00
42433;BME280;28071;48.232;20.668;2023-04-29T06:40:40;99603.81;;;10.62;100.00
42433;BME280;28071;48.232;20.668;2023-04-29T06:45:40;99591.06;;;10.71;100.00
42433;BME280;28071;48.232;20.668;2023-04-29T06:50:48;99600.22;;;10.81;100.00
42433;BME280;28071;48.232;20.668;2023-04-29T06:55:49;99608.31;;;10.87;100.00
42433;BME280;28071;48.232;20.668;2023-04-29T07:00:50;99597.84;;;10.92;100.00
42433;BME280;28071;48.232;20.668;2023-04-29T07:05:50;99603.94;;;10.99;100.00
42433;BME280;28071;48.232;20.668;2023-04-29T07:10:57;99605.50;;;11.06;100.00
42433;BME280;28071;48.232;20.668;2023-04-29T07:15:57;99599.59;;;11.04;100.00
42433;BME280;28071;48.232;20.668;2023-04-29T07:21:01;99607.56;;;11.04;100.00
42433;BME280;28071;48.232;20.668;2023-04-29T07:26:15;99604.41;;;11.14;100.00
42433;BME280;28071;48.232;20.668;2023-04-29T07:31:16;99608.25;;;11.18;100.00
42433;BME280;28071;48.232;20.668;2023-04-29T07:36:16;99595.97;;;11.17;100.00
42433;BME280;28071;48.232;20.668;2023-04-29T07:41:17;99608.91;;;11.32;100.00
42433;BME280;28071;48.232;20.668;2023-04-29T07:46:17;99617.59;;;11.46;100.00
42433;BME280;28071;48.232;20.668;2023-04-29T07:51:18;99587.19;;;11.35;100.00
42433;BME280;28071;48.232;20.668;2023-04-29T07:56:18;99614.31;;;11.62;100.00
42433;BME280;28071;48.232;20.668;2023-04-29T08:01:22;99616.25;;;11.73;100.00
42433;BME280;28071;48.232;20.668;2023-04-29T08:06:22;99618.34;;;11.89;100.00
42433;BME280;28071;48.232;20.668;2023-04-29T08:11:23;99616.63;;;11.95;100.00
42433;BME280;28071;48.232;20.668;2023-04-29T08:16:25;99619.81;;;12.04;100.00
42433;BME280;28071;48.232;20.668;2023-04-29T08:21:26;99623.72;;;12.01;100.00
42433;BME280;28071;48.232;20.668;2023-04-29T08:26:26;99626.59;;;12.00;100.00
42433;BME280;28071;48.232;20.668;2023-04-29T08:31:27;99633.72;;;12.06;100.00
42433;BME280;28071;48.232;20.668;2023-04-29T08:36:27;99630.09;;;12.00;100.00
42433;BME280;28071;48.232;20.668;2023-04-29T08:41:33;99644.63;;;11.86;100.00
42433;BME280;28071;48.232;20.668;2023-04-29T08:46:36;99624.47;;;11.72;100.00
42433;BME280;28071;48.232;20.668;2023-04-29T08:51:36;99637.34;;;12.11;100.00
42433;BME280;28071;48.232;20.668;2023-04-29T08:56:37;99617.09;;;12.22;100.00
42433;BME280;28071;48.232;20.668;2023-04-29T09:01:41;99621.69;;;12.45;99.93
42433;BME280;28071;48.232;20.668;2023-04-29T09:06:42;99641.09;;;12.64;100.00
42433;BME280;28071;48.232;20.668;2023-04-29T09:11:42;99635.16;;;12.62;98.74
42433;BME280;28071;48.232;20.668;2023-04-29T09:16:45;99636.25;;;12.72;99.04
42433;BME280;28071;48.232;20.668;2023-04-29T09:21:53;99614.09;;;12.84;98.48
42433;BME280;28071;48.232;20.668;2023-04-29T09:26:56;99634.66;;;13.06;95.21
42433;BME280;28071;48.232;20.668;2023-04-29T09:31:57;99639.53;;;13.10;94.62
42433;BME280;28071;48.232;20.668;2023-04-29T09:36:58;99624.22;;;13.28;93.08
42433;BME280;28071;48.232;20.668;2023-04-29T09:41:59;99621.81;;;13.39;90.60
42433;BME280;28071;48.232;20.668;2023-04-29T09:47:06;99625.81;;;13.65;91.82
42433;BME280;28071;48.232;20.668;2023-04-29T09:52:12;99628.56;;;13.81;89.59
42433;BME280;28071;48.232;20.668;2023-04-29T09:57:13;99618.03;;;14.03;91.52
42433;BME280;28071;48.232;20.668;2023-04-29T10:02:16;99607.75;;;14.40;88.78
42433;BME280;28071;48.232;20.668;2023-04-29T10:07:17;99605.88;;;14.12;87.46
42433;BME280;28071;48.232;20.668;2023-04-29T10:12:19;99577.25;;;14.25;87.73
42433;BME280;28071;48.232;20.668;2023-04-29T10:22:48;99592.22;;;15.05;84.95
42433;BME280;28071;48.232;20.668;2023-04-29T10:27:50;99589.97;;;15.57;80.09
42433;BME280;28071;48.232;20.668;2023-04-29T10:32:55;99603.28;;;15.69;77.62
42433;BME280;28071;48.232;20.668;2023-04-29T10:37:58;99579.66;;;15.49;76.98
42433;BME280;28071;48.232;20.668;2023-04-29T10:43:00;99604.44;;;15.17;81.09
42433;BME280;28071;48.232;20.668;2023-04-29T10:53:04;99590.88;;;14.40;84.80
42433;BME280;28071;48.232;20.668;2023-04-29T10:58:08;99590.63;;;14.41;88.56
42433;BME280;28071;48.232;20.668;2023-04-29T11:04:00;99582.81;;;14.68;87.10
42433;BME280;28071;48.232;20.668;2023-04-29T11:09:02;99584.91;;;15.00;84.60
42433;BME280;28071;48.232;20.668;2023-04-29T11:14:03;99578.44;;;15.35;82.22
42433;BME280;28071;48.232;20.668;2023-04-29T11:19:07;99567.09;;;15.71;79.69
42433;BME280;28071;48.232;20.668;2023-04-29T11:24:08;99548.00;;;15.90;75.88
42433;BME280;28071;48.232;20.668;2023-04-29T11:29:08;99564.22;;;16.27;75.40
42433;BME280;28071;48.232;20.668;2023-04-29T11:34:11;99550.69;;;16.17;71.69
42433;BME280;28071;48.232;20.668;2023-04-29T11:39:12;99550.13;;;16.47;71.36
42433;BME280;28071;48.232;20.668;2023-04-29T11:44:12;99548.56;;;16.83;70.05
42433;BME280;28071;48.232;20.668;2023-04-29T11:49:13;99548.66;;;16.98;68.66
42433;BME280;28071;48.232;20.668;2023-04-29T11:54:13;99545.53;;;17.11;66.06
42433;BME280;28071;48.232;20.668;2023-04-29T11:59:14;99533.56;;;16.87;68.63
42433;BME280;28071;48.232;20.668;2023-04-29T12:04:14;99535.53;;;16.64;68.63
42433;BME280;28071;48.232;20.668;2023-04-29T12:09:15;99527.06;;;16.83;68.77
42433;BME280;28071;48.232;20.668;2023-04-29T12:14:16;99528.44;;;16.85;67.66
42433;BME280;28071;48.232;20.668;2023-04-29T12:19:16;99526.88;;;16.95;66.78
42433;BME280;28071;48.232;20.668;2023-04-29T12:24:19;99510.19;;;16.92;65.92
42433;BME280;28071;48.232;20.668;2023-04-29T12:29:20;99498.47;;;16.67;65.61
42433;BME280;28071;48.232;20.668;2023-04-29T12:34:28;99506.22;;;16.95;65.75
42433;BME280;28071;48.232;20.668;2023-04-29T12:39:29;99502.19;;;16.98;65.63
42433;BME280;28071;48.232;20.668;2023-04-29T12:44:36;99489.19;;;16.79;67.34
42433;BME280;28071;48.232;20.668;2023-04-29T12:49:46;99477.78;;;17.09;64.54
42433;BME280;28071;48.232;20.668;2023-04-29T12:54:47;99481.41;;;17.45;64.76
42433;BME280;28071;48.232;20.668;2023-04-29T12:59:47;99487.13;;;17.69;62.28
42433;BME280;28071;48.232;20.668;2023-04-29T13:04:47;99480.63;;;17.60;61.71
42433;BME280;28071;48.232;20.668;2023-04-29T13:09:48;99473.41;;;17.66;61.53
42433;BME280;28071;48.232;20.668;2023-04-29T13:14:49;99470.97;;;17.59;61.25
42433;BME280;28071;48.232;20.668;2023-04-29T13:19:50;99458.50;;;17.28;61.13
42433;BME280;28071;48.232;20.668;2023-04-29T13:24:50;99462.31;;;17.42;61.06
42433;BME280;28071;48.232;20.668;2023-04-29T13:29:51;99460.69;;;17.36;61.46
42433;BME280;28071;48.232;20.668;2023-04-29T13:34:52;99461.50;;;17.36;61.62
42433;BME280;28071;48.232;20.668;2023-04-29T13:39:52;99455.34;;;17.51;63.06
42433;BME280;28071;48.232;20.668;2023-04-29T13:44:53;99444.84;;;17.39;59.80
42433;BME280;28071;48.232;20.668;2023-04-29T13:49:56;99457.31;;;16.93;62.83
42433;BME280;28071;48.232;20.668;2023-04-29T13:54:56;99446.56;;;16.93;63.08
42433;BME280;28071;48.232;20.668;2023-04-29T13:59:57;99443.47;;;17.32;62.63
42433;BME280;28071;48.232;20.668;2023-04-29T14:04:57;99441.31;;;17.29;62.69
42433;BME280;28071;48.232;20.668;2023-04-29T14:09:57;99432.69;;;17.27;62.42
42433;BME280;28071;48.232;20.668;2023-04-29T14:14:58;99435.41;;;17.37;63.12
42433;BME280;28071;48.232;20.668;2023-04-29T14:19:58;99431.69;;;17.48;62.33
42433;BME280;28071;48.232;20.668;2023-04-29T14:24:59;99423.31;;;17.34;62.55
42433;BME280;28071;48.232;20.668;2023-04-29T14:29:59;99420.63;;;17.34;62.20
42433;BME280;28071;48.232;20.668;2023-04-29T14:35:00;99406.09;;;17.25;62.98
42433;BME280;28071;48.232;20.668;2023-04-29T14:40:00;99399.34;;;17.17;62.78
42433;BME280;28071;48.232;20.668;2023-04-29T14:45:01;99414.13;;;17.20;63.85
42433;BME280;28071;48.232;20.668;2023-04-29T14:50:01;99420.84;;;17.17;63.52
42433;BME280;28071;48.232;20.668;2023-04-29T14:55:02;99409.84;;;17.24;63.35
42433;BME280;28071;48.232;20.668;2023-04-29T15:00:02;99411.47;;;17.25;63.45
42433;BME280;28071;48.232;20.668;2023-04-29T15:05:03;99412.03;;;17.32;63.34
42433;BME280;28071;48.232;20.668;2023-04-29T15:10:04;99405.84;;;17.32;62.83
42433;BME280;28071;48.232;20.668;2023-04-29T15:15:08;99411.97;;;17.22;61.39
42433;BME280;28071;48.232;20.668;2023-04-29T15:20:09;99418.97;;;17.18;62.69
42433;BME280;28071;48.232;20.668;2023-04-29T15:25:10;99430.72;;;16.97;64.42
42433;BME280;28071;48.232;20.668;2023-04-29T15:30:11;99422.81;;;16.75;63.47
42433;BME280;28071;48.232;20.668;2023-04-29T15:35:11;99424.78;;;16.47;64.07
42433;BME280;28071;48.232;20.668;2023-04-29T15:40:12;99414.28;;;16.46;64.93
42433;BME280;28071;48.232;20.668;2023-04-29T15:45:13;99403.88;;;16.54;65.32
42433;BME280;28071;48.232;20.668;2023-04-29T15:50:13;99401.69;;;16.46;64.39
42433;BME280;28071;48.232;20.668;2023-04-29T15:55:14;99387.19;;;16.47;64.61
42433;BME280;28071;48.232;20.668;2023-04-29T16:00:14;99392.25;;;16.38;63.86
42433;BME280;28071;48.232;20.668;2023-04-29T16:05:15;99404.22;;;16.21;63.68
42433;BME280;28071;48.232;20.668;2023-04-29T16:10:15;99384.78;;;16.08;65.49
42433;BME280;28071;48.232;20.668;2023-04-29T16:15:16;99389.81;;;15.95;65.66
42433;BME280;28071;48.232;20.668;2023-04-29T16:20:16;99391.91;;;15.93;66.71
42433;BME280;28071;48.232;20.668;2023-04-29T16:25:18;99388.44;;;15.92;68.13
42433;BME280;28071;48.232;20.668;2023-04-29T16:30:19;99386.66;;;16.03;67.36
42433;BME280;28071;48.232;20.668;2023-04-29T16:35:19;99388.41;;;15.87;67.14
42433;BME280;28071;48.232;20.668;2023-04-29T16:40:25;99382.69;;;15.78;67.29
42433;BME280;28071;48.232;20.668;2023-04-29T16:45:25;99375.25;;;15.59;68.78
42433;BME280;28071;48.232;20.668;2023-04-29T16:50:26;99381.84;;;15.46;69.84
42433;BME280;28071;48.232;20.668;2023-04-29T16:55:26;99382.59;;;15.41;70.33
42433;BME280;28071;48.232;20.668;2023-04-29T17:00:27;99387.03;;;15.31;71.76
42433;BME280;28071;48.232;20.668;2023-04-29T17:05:27;99394.66;;;15.17;74.55
42433;BME280;28071;48.232;20.668;2023-04-29T17:10:28;99391.19;;;14.94;80.60
42433;BME280;28071;48.232;20.668;2023-04-29T17:15:29;99384.56;;;14.75;83.88
42433;BME280;28071;48.232;20.668;2023-04-29T17:20:29;99393.28;;;14.32;85.08
42433;BME280;28071;48.232;20.668;2023-04-29T17:25:30;99398.03;;;13.91;86.35
42433;BME280;28071;48.232;20.668;2023-04-29T17:30:32;99400.81;;;13.68;89.08
42433;BME280;28071;48.232;20.668;2023-04-29T17:35:33;99403.94;;;13.31;91.89
42433;BME280;28071;48.232;20.668;2023-04-29T17:40:34;99394.13;;;13.08;92.49
42433;BME280;28071;48.232;20.668;2023-04-29T17:45:38;99367.03;;;12.76;93.88
42433;BME280;28071;48.232;20.668;2023-04-29T17:50:39;99400.97;;;12.64;95.75
42433;BME280;28071;48.232;20.668;2023-04-29T17:55:40;99404.56;;;12.22;96.19
42433;BME280;28071;48.232;20.668;2023-04-29T18:06:38;99416.63;;;12.02;97.64
42433;BME280;28071;48.232;20.668;2023-04-29T18:11:38;99421.59;;;11.86;99.42
42433;BME280;28071;48.232;20.668;2023-04-29T18:16:39;99418.16;;;11.67;100.00
42433;BME280;28071;48.232;20.668;2023-04-29T18:21:39;99420.91;;;11.61;100.00
42433;BME280;28071;48.232;20.668;2023-04-29T18:26:40;99405.00;;;11.43;100.00
42433;BME280;28071;48.232;20.668;2023-04-29T18:31:40;99422.59;;;11.14;100.00
42433;BME280;28071;48.232;20.668;2023-04-29T18:36:42;99430.50;;;11.02;100.00
42433;BME280;28071;48.232;20.668;2023-04-29T18:41:42;99431.84;;;10.93;100.00
42433;BME280;28071;48.232;20.668;2023-04-29T18:46:43;99435.09;;;10.76;100.00
42433;BME280;28071;48.232;20.668;2023-04-29T18:51:43;99443.22;;;10.63;100.00
42433;BME280;28071;48.232;20.668;2023-04-29T18:56:48;99417.25;;;10.40;100.00
42433;BME280;28071;48.232;20.668;2023-04-29T19:01:49;99437.81;;;10.51;100.00
42433;BME280;28071;48.232;20.668;2023-04-29T19:06:49;99445.81;;;10.51;100.00
42433;BME280;28071;48.232;20.668;2023-04-29T19:11:50;99441.66;;;10.55;100.00
42433;BME280;28071;48.232;20.668;2023-04-29T19:16:50;99451.25;;;10.56;100.00
42433;BME280;28071;48.232;20.668;2023-04-29T19:21:51;99454.66;;;10.64;100.00
42433;BME280;28071;48.232;20.668;2023-04-29T19:26:51;99449.78;;;10.61;100.00
42433;BME280;28071;48.232;20.668;2023-04-29T19:31:52;99463.44;;;10.64;100.00
42433;BME280;28071;48.232;20.668;2023-04-29T19:36:52;99457.19;;;10.59;100.00
42433;BME280;28071;48.232;20.668;2023-04-29T19:41:53;99455.94;;;10.61;100.00
42433;BME280;28071;48.232;20.668;2023-04-29T19:46:55;99459.56;;;10.42;100.00
42433;BME280;28071;48.232;20.668;2023-04-29T19:51:55;99458.63;;;10.36;100.00
42433;BME280;28071;48.232;20.668;2023-04-29T19:56:55;99457.94;;;10.41;100.00
42433;BME280;28071;48.232;20.668;2023-04-29T20:01:56;99460.78;;;10.46;100.00
42433;BME280;28071;48.232;20.668;2023-04-29T20:06:56;99461.09;;;10.56;100.00
42433;BME280;28071;48.232;20.668;2023-04-29T20:11:57;99447.44;;;10.52;100.00
42433;BME280;28071;48.232;20.668;2023-04-29T20:16:57;99460.72;;;10.71;100.00
42433;BME280;28071;48.232;20.668;2023-04-29T20:21:58;99459.97;;;10.64;100.00
42433;BME280;28071;48.232;20.668;2023-04-29T20:26:58;99459.75;;;10.47;100.00
42433;BME280;28071;48.232;20.668;2023-04-29T20:31:59;99454.38;;;10.53;100.00
42433;BME280;28071;48.232;20.668;2023-04-29T20:36:59;99452.16;;;10.50;100.00
42433;BME280;28071;48.232;20.668;2023-04-29T20:42:00;99454.19;;;10.48;100.00
42433;BME280;28071;48.232;20.668;2023-04-29T20:47:01;99446.56;;;10.34;100.00
42433;BME280;28071;48.232;20.668;2023-04-29T20:52:03;99448.56;;;10.38;100.00
42433;BME280;28071;48.232;20.668;2023-04-29T20:57:07;99452.63;;;10.16;100.00
42433;BME280;28071;48.232;20.668;2023-04-29T21:02:07;99449.19;;;9.84;100.00
42433;BME280;28071;48.232;20.668;2023-04-29T21:07:08;99453.00;;;9.63;100.00
42433;BME280;28071;48.232;20.668;2023-04-29T21:12:09;99453.34;;;9.35;100.00
42433;BME280;28071;48.232;20.668;2023-04-29T21:17:09;99452.25;;;9.04;100.00
42433;BME280;28071;48.232;20.668;2023-04-29T21:22:10;99441.91;;;8.89;100.00
42433;BME280;28071;48.232;20.668;2023-04-29T21:27:10;99441.91;;;8.96;100.00
42433;BME280;28071;48.232;20.668;2023-04-29T21:32:11;99446.84;;;8.86;100.00
42433;BME280;28071;48.232;20.668;2023-04-29T21:37:11;99449.06;;;8.82;100.00
42433;BME280;28071;48.232;20.668;2023-04-29T21:42:12;99446.38;;;8.96;100.00
42433;BME280;28071;48.232;20.668;2023-04-29T21:47:13;99451.78;;;8.69;100.00
42433;BME280;28071;48.232;20.668;2023-04-29T21:52:13;99460.78;;;8.42;100.00
42433;BME280;28071;48.232;20.668;2023-04-29T21:57:14;99458.75;;;8.37;100.00
42433;BME280;28071;48.232;20.668;2023-04-29T22:02:14;99453.03;;;8.20;100.00
42433;BME280;28071;48.232;20.668;2023-04-29T22:07:22;99437.94;;;8.01;100.00
42433;BME280;28071;48.232;20.668;2023-04-29T22:12:22;99442.63;;;8.05;100.00
42433;BME280;28071;48.232;20.668;2023-04-29T22:17:23;99437.13;;;7.87;100.00
42433;BME280;28071;48.232;20.668;2023-04-29T22:22:23;99434.66;;;7.66;100.00
42433;BME280;28071;48.232;20.668;2023-04-29T22:27:23;99422.00;;;7.55;100.00
42433;BME280;28071;48.232;20.668;2023-04-29T22:32:24;99421.63;;;7.51;100.00
42433;BME280;28071;48.232;20.668;2023-04-29T22:37:24;99419.97;;;7.43;100.00
42433;BME280;28071;48.232;20.668;2023-04-29T22:42:25;99421.19;;;7.41;100.00
42433;BME280;28071;48.232;20.668;2023-04-29T22:47:25;99424.47;;;7.49;100.00
42433;BME280;28071;48.232;20.668;2023-04-29T22:52:26;99429.75;;;7.43;100.00
42433;BME280;28071;48.232;20.668;2023-04-29T22:57:26;99423.44;;;7.44;100.00
42433;BME280;28071;48.232;20.668;2023-04-29T23:02:27;99428.50;;;7.39;100.00
42433;BME280;28071;48.232;20.668;2023-04-29T23:07:28;99423.00;;;7.34;100.00
42433;BME280;28071;48.232;20.668;2023-04-29T23:12:28;99424.59;;;7.28;100.00
42433;BME280;28071;48.232;20.668;2023-04-29T23:17:29;99424.78;;;7.13;100.00
42433;BME280;28071;48.232;20.668;2023-04-29T23:22:30;99423.97;;;7.19;100.00
42433;BME280;28071;48.232;20.668;2023-04-29T23:27:30;99425.97;;;7.17;100.00
42433;BME280;28071;48.232;20.668;2023-04-29T23:32:30;99422.13;;;7.13;100.00
42433;BME280;28071;48.232;20.668;2023-04-29T23:37:31;99422.44;;;6.90;100.00
42433;BME280;28071;48.232;20.668;2023-04-29T23:42:32;99413.09;;;6.88;100.00
42433;BME280;28071;48.232;20.668;2023-04-29T23:47:32;99417.50;;;6.74;100.00
42433;BME280;28071;48.232;20.668;2023-04-29T23:52:33;99412.75;;;6.63;100.00
42433;BME280;28071;48.232;20.668;2023-04-29T23:57:33;99423.28;;;6.56;100.00
